createdAt,value
2018-04-16T00:01:44.396Z,43.37
2018-04-16T00:04:10.409Z,43.39
2018-04-16T00:06:36.382Z,43.35
2018-04-16T00:09:02.390Z,43.34
2018-04-16T00:11:28.375Z,43.30
2018-04-16T00:13:54.357Z,43.29
2018-04-16T00:16:20.348Z,43.27
2018-04-16T00:18:46.337Z,43.27
2018-04-16T00:21:12.348Z,43.24
2018-04-16T00:23:38.362Z,43.25
2018-04-16T00:26:04.302Z,43.21
2018-04-16T00:28:30.323Z,43.16
2018-04-16T00:30:56.335Z,43.14
2018-04-16T00:33:22.323Z,43.23
2018-04-16T00:35:48.306Z,43.24
2018-04-16T00:38:14.331Z,43.17
2018-04-16T00:40:40.285Z,43.17
2018-04-16T00:43:06.269Z,43.13
2018-04-16T00:45:32.290Z,43.14
2018-04-16T00:47:58.278Z,43.14
2018-04-16T00:50:24.263Z,43.13
2018-04-16T00:52:50.248Z,43.08
2018-04-16T00:55:16.223Z,43.06
2018-04-16T00:57:42.244Z,43.01
2018-04-16T01:00:08.216Z,43.03
2018-04-16T01:02:34.228Z,43.08
2018-04-16T01:05:00.218Z,43.07
2018-04-16T01:07:26.177Z,43.13
2018-04-16T01:09:52.196Z,43.01
2018-04-16T01:12:18.167Z,42.95
2018-04-16T01:14:44.189Z,42.97
2018-04-16T01:17:10.211Z,43.00
2018-04-16T01:19:36.196Z,42.94
2018-04-16T01:22:02.159Z,42.99
2018-04-16T01:24:28.146Z,42.98
2018-04-16T01:26:54.144Z,43.05
2018-04-16T01:29:20.173Z,42.91
2018-04-16T01:31:46.147Z,42.93
2018-04-16T01:34:12.168Z,42.86
2018-04-16T01:36:38.123Z,42.87
2018-04-16T01:39:04.118Z,42.86
2018-04-16T01:41:30.136Z,42.87
2018-04-16T01:43:56.093Z,42.94
2018-04-16T01:46:22.111Z,42.87
2018-04-16T01:48:48.064Z,42.80
2018-04-16T01:51:14.077Z,42.80
2018-04-16T01:53:40.056Z,42.84
2018-04-16T01:56:06.040Z,42.74
2018-04-16T01:58:32.019Z,42.78
2018-04-16T02:00:58.045Z,42.72
2018-04-16T02:03:24.032Z,42.73
2018-04-16T02:05:50.021Z,42.68
2018-04-16T02:08:16.002Z,42.85
2018-04-16T02:10:41.990Z,42.70
2018-04-16T02:13:07.976Z,42.83
2018-04-16T02:15:33.951Z,42.81
2018-04-16T02:17:59.977Z,42.76
2018-04-16T02:20:25.935Z,42.76
2018-04-16T02:22:51.910Z,42.77
2018-04-16T02:25:17.901Z,42.72
2018-04-16T02:27:43.919Z,42.77
2018-04-16T02:30:09.902Z,42.72
2018-04-16T02:32:35.922Z,42.63
2018-04-16T02:35:01.871Z,42.61
2018-04-16T02:37:27.882Z,42.76
2018-04-16T02:39:53.837Z,42.74
2018-04-16T02:42:19.849Z,42.66
2018-04-16T02:44:45.807Z,42.75
2018-04-16T02:47:11.791Z,42.55
2018-04-16T02:49:37.780Z,42.66
2018-04-16T02:52:03.768Z,42.62
2018-04-16T02:54:29.818Z,42.64
2018-04-16T02:56:55.774Z,42.53
2018-04-16T02:59:21.759Z,42.65
2018-04-16T03:01:47.742Z,42.64
2018-04-16T03:04:13.733Z,42.60
2018-04-16T03:06:39.722Z,42.48
2018-04-16T03:09:05.836Z,42.57
2018-04-16T03:11:31.806Z,42.52
2018-04-16T03:13:57.783Z,42.62
2018-04-16T03:16:23.778Z,42.50
2018-04-16T03:18:49.763Z,42.50
2018-04-16T03:21:15.776Z,42.50
2018-04-16T03:23:41.727Z,42.52
2018-04-16T03:26:07.744Z,42.41
2018-04-16T03:28:33.697Z,42.48
2018-04-16T03:30:59.680Z,42.50
2018-04-16T03:33:25.667Z,42.57
2018-04-16T03:35:51.654Z,42.46
2018-04-16T03:38:17.677Z,42.45
2018-04-16T03:40:43.659Z,42.38
2018-04-16T03:43:09.683Z,42.32
2018-04-16T03:45:35.663Z,42.46
2018-04-16T03:48:01.650Z,42.49
2018-04-16T03:50:27.678Z,42.29
2018-04-16T03:52:53.661Z,42.37
2018-04-16T03:55:19.640Z,42.27
2018-04-16T03:57:45.661Z,42.28
2018-04-16T04:00:11.704Z,42.46
2018-04-16T04:02:37.686Z,42.19
2018-04-16T04:05:03.734Z,42.45
2018-04-16T04:07:29.688Z,42.43
2018-04-16T04:09:55.675Z,42.54
2018-04-16T04:12:21.663Z,42.42
2018-04-16T04:14:47.678Z,42.57
2018-04-16T04:17:13.639Z,42.37
2018-04-16T04:19:39.631Z,42.47
2018-04-16T04:22:05.635Z,42.39
2018-04-16T04:24:31.627Z,42.24
2018-04-16T04:26:57.613Z,42.37
2018-04-16T04:29:23.597Z,42.37
2018-04-16T04:31:49.580Z,42.37
2018-04-16T04:34:15.586Z,42.32
2018-04-16T04:36:41.571Z,42.16
2018-04-16T04:39:07.562Z,42.18
2018-04-16T04:41:33.549Z,41.87
2018-04-16T04:43:59.590Z,41.76
2018-04-16T04:46:25.547Z,42.11
2018-04-16T04:48:51.547Z,42.13
2018-04-16T04:51:17.535Z,42.01
2018-04-16T04:53:43.554Z,41.72
2018-04-16T04:56:09.556Z,41.71
2018-04-16T04:58:35.542Z,41.54
2018-04-16T05:01:01.662Z,41.78
2018-04-16T05:03:27.677Z,41.77
2018-04-16T05:05:53.646Z,41.80
2018-04-16T05:08:19.693Z,41.81
2018-04-16T05:10:45.676Z,41.81
2018-04-16T05:13:11.633Z,41.78
2018-04-16T05:15:37.638Z,41.91
2018-04-16T05:18:03.626Z,41.82
2018-04-16T05:20:29.603Z,41.54
2018-04-16T05:22:55.599Z,41.42
2018-04-16T05:25:21.629Z,41.46
2018-04-16T05:27:47.637Z,41.51
2018-04-16T05:30:13.613Z,41.41
2018-04-16T05:32:39.697Z,41.51
2018-04-16T05:35:05.720Z,41.42
2018-04-16T05:37:31.660Z,41.49
2018-04-16T05:39:57.784Z,41.45
2018-04-16T05:42:23.955Z,41.68
2018-04-16T05:44:49.922Z,41.56
2018-04-16T05:47:15.947Z,41.50
2018-04-16T05:49:41.958Z,41.72
2018-04-16T05:52:07.968Z,41.72
2018-04-16T05:54:34.107Z,41.81
2018-04-16T05:57:00.109Z,41.88
2018-04-16T05:59:26.105Z,41.79
2018-04-16T06:01:52.136Z,41.82
2018-04-16T06:04:18.137Z,41.79
2018-04-16T06:06:44.151Z,41.80
2018-04-16T06:09:10.225Z,41.83
2018-04-16T06:11:36.159Z,41.83
2018-04-16T06:14:02.136Z,41.85
2018-04-16T06:16:28.128Z,41.87
2018-04-16T06:18:54.107Z,41.89
2018-04-16T06:21:20.128Z,41.95
2018-04-16T06:23:46.074Z,41.94
2018-04-16T06:26:12.062Z,41.98
2018-04-16T06:28:38.093Z,41.97
2018-04-16T06:31:04.235Z,41.99
2018-04-16T06:33:30.259Z,42.02
2018-04-16T06:35:56.217Z,42.03
2018-04-16T06:38:22.196Z,42.06
2018-04-16T06:40:48.180Z,41.97
2018-04-16T06:43:14.210Z,41.99
2018-04-16T06:45:40.276Z,42.01
2018-04-16T06:48:06.259Z,41.98
2018-04-16T06:50:32.266Z,41.95
2018-04-16T06:52:58.249Z,41.98
2018-04-16T06:55:24.255Z,41.96
2018-04-16T06:57:50.236Z,41.96
2018-04-16T07:00:16.341Z,41.96
2018-04-16T07:02:42.362Z,41.93
2018-04-16T07:05:08.388Z,41.92
2018-04-16T07:07:34.338Z,41.88
2018-04-16T07:10:00.390Z,41.84
2018-04-16T07:12:26.376Z,41.83
2018-04-16T07:14:52.399Z,41.80
2018-04-16T07:17:18.414Z,41.80
2018-04-16T07:19:44.397Z,41.78
2018-04-16T07:22:10.417Z,41.78
2018-04-16T07:24:36.399Z,41.87
2018-04-16T07:27:02.404Z,41.84
2018-04-16T07:29:28.460Z,41.76
2018-04-16T07:31:54.440Z,41.73
2018-04-16T07:34:20.457Z,41.69
2018-04-16T07:36:46.435Z,41.68
2018-04-16T07:39:12.447Z,41.60
2018-04-16T07:41:38.391Z,41.63
2018-04-16T07:44:04.401Z,41.59
2018-04-16T07:46:30.389Z,41.53
2018-04-16T07:48:56.405Z,41.45
2018-04-16T07:51:22.389Z,41.41
2018-04-16T07:53:48.403Z,41.34
2018-04-16T07:56:14.382Z,41.39
2018-04-16T07:58:40.365Z,41.39
2018-04-16T08:01:06.340Z,41.35
2018-04-16T08:03:32.327Z,41.42
2018-04-16T08:05:58.317Z,41.41
2018-04-16T08:08:24.293Z,41.42
2018-04-16T08:10:50.271Z,41.38
2018-04-16T08:13:16.310Z,41.25
2018-04-16T08:15:42.322Z,41.29
2018-04-16T08:18:08.328Z,41.25
2018-04-16T08:20:34.321Z,41.25
2018-04-16T08:23:00.334Z,41.30
2018-04-16T08:25:26.278Z,41.22
2018-04-16T08:27:52.264Z,41.19
2018-04-16T08:30:18.299Z,41.12
2018-04-16T08:32:44.307Z,41.17
2018-04-16T08:35:10.263Z,41.11
2018-04-16T08:37:36.246Z,41.12
2018-04-16T08:40:02.236Z,41.10
2018-04-16T08:42:28.217Z,41.08
2018-04-16T08:44:54.262Z,40.96
2018-04-16T08:47:20.223Z,40.93
2018-04-16T08:49:46.226Z,40.93
2018-04-16T08:52:12.189Z,40.90
2018-04-16T08:54:38.179Z,40.84
2018-04-16T08:57:04.166Z,40.91
2018-04-16T08:59:30.152Z,40.89
2018-04-16T09:01:56.181Z,40.77
2018-04-16T09:04:22.186Z,40.77
2018-04-16T09:06:48.178Z,40.76
2018-04-16T09:09:14.167Z,40.73
2018-04-16T09:11:40.194Z,40.66
2018-04-16T09:14:06.213Z,40.88
2018-04-16T09:16:32.194Z,40.77
2018-04-16T09:18:58.165Z,40.68
2018-04-16T09:21:24.160Z,40.72
2018-04-16T09:23:50.181Z,40.94
2018-04-16T09:26:16.196Z,41.04
2018-04-16T09:28:42.146Z,41.10
2018-04-16T09:31:08.175Z,40.85
2018-04-16T09:33:34.159Z,40.64
2018-04-16T09:36:00.164Z,41.10
2018-04-16T09:38:26.173Z,40.94
2018-04-16T09:40:52.150Z,40.69
2018-04-16T09:43:18.096Z,40.86
2018-04-16T09:45:44.090Z,40.78
2018-04-16T09:48:10.126Z,40.89
2018-04-16T09:50:36.109Z,40.81
2018-04-16T09:53:02.131Z,40.91
2018-04-16T09:55:28.124Z,40.90
2018-04-16T09:57:54.147Z,40.96
2018-04-16T10:00:20.264Z,40.80
2018-04-16T10:02:46.193Z,40.85
2018-04-16T10:05:12.204Z,40.83
2018-04-16T10:07:38.185Z,40.72
2018-04-16T10:10:04.205Z,40.70
2018-04-16T10:12:30.156Z,40.95
2018-04-16T10:14:56.167Z,40.93
2018-04-16T10:17:22.112Z,40.85
2018-04-16T10:19:48.122Z,40.90
2018-04-16T10:22:14.115Z,40.92
2018-04-16T10:24:40.072Z,40.85
2018-04-16T10:27:06.103Z,41.02
2018-04-16T10:29:32.094Z,40.91
2018-04-16T10:31:58.076Z,41.02
2018-04-16T10:34:24.059Z,40.92
2018-04-16T10:36:50.046Z,40.83
2018-04-16T10:39:16.027Z,41.02
2018-04-16T10:41:42.038Z,41.01
2018-04-16T10:44:08.217Z,41.12
2018-04-16T10:46:34.205Z,41.08
2018-04-16T10:49:00.432Z,41.11
2018-04-16T10:51:26.420Z,41.10
2018-04-16T10:53:52.474Z,41.14
2018-04-16T10:56:18.554Z,41.17
2018-04-16T10:58:44.596Z,41.24
2018-04-16T11:01:10.605Z,41.40
2018-04-16T11:03:36.551Z,41.46
2018-04-16T11:06:02.668Z,41.55
2018-04-16T11:08:28.955Z,41.54
2018-04-16T11:10:54.972Z,41.60
2018-04-16T11:13:20.963Z,41.66
2018-04-16T11:15:46.943Z,41.78
2018-04-16T11:18:12.995Z,41.87
2018-04-16T11:20:38.965Z,41.75
2018-04-16T11:23:05.074Z,41.85
2018-04-16T11:25:31.533Z,41.87
2018-04-16T11:27:57.517Z,41.93
2018-04-16T11:30:23.528Z,41.80
2018-04-16T11:32:50.486Z,41.98
2018-04-16T11:35:17.533Z,41.95
2018-04-16T11:37:48.569Z,42.15
2018-04-16T11:42:49.689Z,42.06
2018-04-16T11:45:15.678Z,42.06
2018-04-16T11:47:41.665Z,42.24
2018-04-16T11:50:07.645Z,42.08
2018-04-16T11:52:34.134Z,41.96
2018-04-16T11:55:01.120Z,41.98
2018-04-16T11:57:27.136Z,41.88
2018-04-16T11:59:53.096Z,41.75
2018-04-16T12:02:19.097Z,41.63
2018-04-16T12:04:45.134Z,41.83
2018-04-16T12:07:11.131Z,41.78
2018-04-16T12:09:37.118Z,41.89
2018-04-16T12:12:03.369Z,42.31
2018-04-16T12:14:29.355Z,42.38
2018-04-16T12:16:55.340Z,42.60
2018-04-16T12:19:21.336Z,42.35
2018-04-16T12:21:47.322Z,42.37
2018-04-16T12:24:13.307Z,42.45
2018-04-16T12:26:39.301Z,42.20
2018-04-16T12:29:05.322Z,42.18
2018-04-16T12:31:31.414Z,42.14
2018-04-16T12:33:57.344Z,42.19
2018-04-16T12:36:23.374Z,42.21
2018-04-16T12:38:49.334Z,42.19
2018-04-16T12:41:15.350Z,42.24
2018-04-16T12:43:41.306Z,42.19
2018-04-16T12:46:07.311Z,42.41
2018-04-16T12:48:33.305Z,42.41
2018-04-16T12:50:59.313Z,42.58
2018-04-16T12:53:25.300Z,42.43
2018-04-16T12:55:51.247Z,42.52
2018-04-16T12:58:17.257Z,42.45
2018-04-16T13:00:43.210Z,42.69
2018-04-16T13:03:09.192Z,42.68
2018-04-16T13:05:35.180Z,42.49
2018-04-16T13:08:01.185Z,42.37
2018-04-16T13:10:27.212Z,42.31
2018-04-16T13:12:53.201Z,42.32
2018-04-16T13:15:19.185Z,42.24
2018-04-16T13:17:45.173Z,42.24
2018-04-16T13:20:13.224Z,42.13
2018-04-16T13:22:39.211Z,42.14
2018-04-16T13:25:05.197Z,42.01
2018-04-16T13:27:33.412Z,42.05
2018-04-16T13:29:59.444Z,41.90
2018-04-16T13:32:25.440Z,41.86
2018-04-16T13:34:51.419Z,41.86
2018-04-16T13:37:17.425Z,41.84
2018-04-16T13:39:43.401Z,41.78
2018-04-16T13:42:09.403Z,41.72
2018-04-16T13:44:35.415Z,41.63
2018-04-16T13:47:01.384Z,41.38
2018-04-16T13:49:27.395Z,41.61
2018-04-16T13:51:53.423Z,41.46
2018-04-16T13:54:19.418Z,41.46
2018-04-16T13:56:45.369Z,41.38
2018-04-16T13:59:11.382Z,41.37
2018-04-16T14:01:37.372Z,41.28
2018-04-16T14:04:03.394Z,41.14
2018-04-16T14:06:29.372Z,40.78
2018-04-16T14:08:55.385Z,41.25
2018-04-16T14:11:21.381Z,41.04
2018-04-16T14:13:47.398Z,41.11
2018-04-16T14:16:13.370Z,41.10
2018-04-16T14:18:39.365Z,41.12
2018-04-16T14:21:05.388Z,40.75
2018-04-16T14:23:31.377Z,40.87
2018-04-16T14:25:57.401Z,40.91
2018-04-16T14:28:23.421Z,40.84
2018-04-16T14:30:49.375Z,40.97
2018-04-16T14:33:15.371Z,40.75
2018-04-16T14:35:41.366Z,40.94
2018-04-16T14:38:07.392Z,40.83
2018-04-16T14:40:33.404Z,40.94
2018-04-16T14:42:59.374Z,40.94
2018-04-16T14:45:25.356Z,40.79
2018-04-16T14:47:51.338Z,40.95
2018-04-16T14:50:17.347Z,40.72
2018-04-16T14:52:43.347Z,40.73
2018-04-16T14:55:09.324Z,40.65
2018-04-16T14:57:35.368Z,40.55
2018-04-16T15:00:01.382Z,40.62
2018-04-16T15:02:27.337Z,40.85
2018-04-16T15:04:53.324Z,40.77
2018-04-16T15:07:19.301Z,40.77
2018-04-16T15:09:45.411Z,40.33
2018-04-16T15:12:11.401Z,40.55
2018-04-16T15:14:37.395Z,40.71
2018-04-16T15:17:03.407Z,40.45
2018-04-16T15:19:29.416Z,40.43
2018-04-16T15:21:55.433Z,40.06
2018-04-16T15:24:21.384Z,40.45
2018-04-16T15:26:47.408Z,40.12
2018-04-16T15:29:13.364Z,40.53
2018-04-16T15:31:39.372Z,40.54
2018-04-16T15:34:05.378Z,40.66
2018-04-16T15:36:31.363Z,40.79
2018-04-16T15:38:57.354Z,40.81
2018-04-16T15:41:23.343Z,41.04
2018-04-16T15:43:49.370Z,41.00
2018-04-16T15:46:15.359Z,41.09
2018-04-16T15:48:41.367Z,41.14
2018-04-16T15:51:07.380Z,41.35
2018-04-16T15:53:33.373Z,41.38
2018-04-16T15:55:59.408Z,41.46
2018-04-16T15:58:25.387Z,41.46
2018-04-16T16:00:51.368Z,41.64
2018-04-16T16:03:17.351Z,41.60
2018-04-16T16:05:44.100Z,41.75
2018-04-16T16:08:10.111Z,41.69
2018-04-16T16:10:36.796Z,41.69
2018-04-16T16:13:02.787Z,41.96
2018-04-16T16:15:30.647Z,41.96
2018-04-16T16:17:56.626Z,42.06
2018-04-16T16:20:23.198Z,42.16
2018-04-16T16:22:49.220Z,42.36
2018-04-16T16:25:15.211Z,42.54
2018-04-16T16:27:41.352Z,43.09
2018-04-16T16:30:07.659Z,43.09
2018-04-16T16:32:33.635Z,43.54
2018-04-16T16:34:59.693Z,44.78
2018-04-16T16:37:25.616Z,45.94
2018-04-16T16:39:57.920Z,45.68
2018-04-16T16:42:23.946Z,45.73
2018-04-16T16:44:49.935Z,45.43
2018-04-16T16:47:16.002Z,45.61
2018-04-16T16:49:42.045Z,45.67
2018-04-16T16:52:08.021Z,45.80
2018-04-16T16:54:35.114Z,45.80
2018-04-16T16:57:01.144Z,44.53
2018-04-16T16:59:27.123Z,44.05
2018-04-16T17:01:53.138Z,43.75
2018-04-16T17:04:19.131Z,45.69
2018-04-16T17:06:45.076Z,45.35
2018-04-16T17:09:11.142Z,44.86
2018-04-16T17:11:37.112Z,45.08
2018-04-16T17:14:03.225Z,44.68
2018-04-16T17:16:29.317Z,44.30
2018-04-16T17:18:55.339Z,44.79
2018-04-16T17:21:21.291Z,44.31
2018-04-16T17:23:47.314Z,43.67
2018-04-16T17:26:13.303Z,44.67
2018-04-16T17:28:39.275Z,44.84
2018-04-16T17:31:05.287Z,44.55
2018-04-16T17:33:31.236Z,44.26
2018-04-16T17:35:57.242Z,44.04
2018-04-16T17:38:23.250Z,43.90
2018-04-16T17:40:49.244Z,44.35
2018-04-16T17:43:15.215Z,44.64
2018-04-16T17:45:41.242Z,46.10
2018-04-16T17:48:07.260Z,46.17
2018-04-16T17:50:33.286Z,44.94
2018-04-16T17:52:59.276Z,45.23
2018-04-16T17:55:25.293Z,45.50
2018-04-16T17:57:57.236Z,45.69
2018-04-16T18:00:30.926Z,45.65
2018-04-16T18:02:56.888Z,45.00
2018-04-16T18:05:23.848Z,45.35
2018-04-16T18:07:49.853Z,45.41
2018-04-16T18:10:15.884Z,45.45
2018-04-16T18:12:41.834Z,45.13
2018-04-16T18:15:09.791Z,45.25
2018-04-16T18:17:35.767Z,44.70
2018-04-16T18:20:01.781Z,45.06
2018-04-16T18:22:27.832Z,45.06
2018-04-16T18:24:54.828Z,44.89
2018-04-16T18:27:20.789Z,44.79
2018-04-16T18:29:46.768Z,45.18
2018-04-16T18:32:20.879Z,44.91
2018-04-16T18:34:46.880Z,44.70
2018-04-16T18:37:12.887Z,44.86
2018-04-16T18:39:38.874Z,44.89
2018-04-16T18:42:06.821Z,44.37
2018-04-16T18:44:32.822Z,44.18
2018-04-16T18:46:58.801Z,44.15
2018-04-16T18:49:24.853Z,44.22
2018-04-16T18:51:51.075Z,43.98
2018-04-16T18:54:17.150Z,44.18
2018-04-16T18:56:45.447Z,43.81
2018-04-16T18:59:15.983Z,44.00
2018-04-16T19:01:47.906Z,43.92
2018-04-16T19:04:15.080Z,44.08
2018-04-16T19:06:47.834Z,44.30
2018-04-16T19:09:14.677Z,44.47
2018-04-16T19:11:41.529Z,44.42
2018-04-16T19:14:08.576Z,44.08
2018-04-16T19:16:35.242Z,44.15
2018-04-16T19:19:01.695Z,44.60
2018-04-16T19:21:28.901Z,44.54
2018-04-16T19:23:55.138Z,44.60
2018-04-16T19:26:28.340Z,44.64
2018-04-16T19:28:54.617Z,44.03
2018-04-16T19:31:21.323Z,43.79
2018-04-16T19:33:48.313Z,43.72
2018-04-16T19:36:14.677Z,43.83
2018-04-16T19:38:40.780Z,43.69
2018-04-16T19:41:18.616Z,43.68
2018-04-16T19:43:45.062Z,43.92
2018-04-16T19:46:12.427Z,44.05
2018-04-16T19:48:38.653Z,43.65
2018-04-16T19:51:05.197Z,43.88
2018-04-16T19:53:31.998Z,43.73
2018-04-16T19:55:58.462Z,43.73
2018-04-16T19:58:24.898Z,44.03
2018-04-16T20:00:50.883Z,43.62
2018-04-16T20:03:17.221Z,43.87
2018-04-16T20:05:43.277Z,43.70
2018-04-16T20:08:09.380Z,43.66
2018-04-16T20:10:35.358Z,43.95
2018-04-16T20:13:01.474Z,43.80
2018-04-16T20:15:27.478Z,44.07
2018-04-16T20:17:53.474Z,43.75
2018-04-16T20:20:19.501Z,43.83
2018-04-16T20:22:46.345Z,43.83
2018-04-16T20:25:12.666Z,43.91
2018-04-16T20:27:39.575Z,43.93
2018-04-16T20:30:05.988Z,43.79
2018-04-16T20:32:32.211Z,44.04
2018-04-16T20:34:58.205Z,43.93
2018-04-16T20:37:24.270Z,43.74
2018-04-16T20:39:50.259Z,43.89
2018-04-16T20:42:16.898Z,43.74
2018-04-16T20:44:42.937Z,43.83
2018-04-16T20:47:08.900Z,43.78
2018-04-16T20:49:34.983Z,43.78
2018-04-16T20:52:01.007Z,43.90
2018-04-16T20:54:27.140Z,43.86
2018-04-16T20:56:53.152Z,43.84
2018-04-16T20:59:19.150Z,44.03
2018-04-16T21:01:45.139Z,43.84
2018-04-16T21:04:11.157Z,43.71
2018-04-16T21:06:37.192Z,43.49
2018-04-16T21:09:03.205Z,43.96
2018-04-16T21:11:29.381Z,43.67
2018-04-16T21:13:55.504Z,43.68
2018-04-16T21:16:21.507Z,43.57
2018-04-16T21:18:47.489Z,43.56
2018-04-16T21:21:13.472Z,43.60
2018-04-16T21:23:39.489Z,43.83
2018-04-16T21:26:05.442Z,43.68
2018-04-16T21:28:31.459Z,43.65
2018-04-16T21:30:57.411Z,43.96
2018-04-16T21:33:23.409Z,43.92
2018-04-16T21:35:49.413Z,43.78
2018-04-16T21:38:15.358Z,43.63
2018-04-16T21:40:41.336Z,43.81
2018-04-16T21:43:07.324Z,43.49
2018-04-16T21:45:33.332Z,43.58
2018-04-16T21:47:59.362Z,43.42
2018-04-16T21:50:25.346Z,43.38
2018-04-16T21:52:51.330Z,43.43
2018-04-16T21:55:17.350Z,43.43
2018-04-16T21:57:43.295Z,43.43
2018-04-16T22:00:09.279Z,43.59
2018-04-16T22:02:35.262Z,43.66
2018-04-16T22:05:01.251Z,43.61
2018-04-16T22:07:27.282Z,43.72
2018-04-16T22:09:53.230Z,43.66
2018-04-16T22:12:19.238Z,43.84
2018-04-16T22:14:45.229Z,43.73
2018-04-16T22:17:11.186Z,43.79
2018-04-16T22:19:37.181Z,43.72
2018-04-16T22:22:03.164Z,43.76
2018-04-16T22:24:29.155Z,43.58
2018-04-16T22:26:55.164Z,43.48
2018-04-16T22:29:21.173Z,43.30
2018-04-16T22:31:47.165Z,43.25
2018-04-16T22:34:13.141Z,43.30
2018-04-16T22:36:39.131Z,43.12
2018-04-16T22:39:05.153Z,43.20
2018-04-16T22:41:31.129Z,43.11
2018-04-16T22:43:57.111Z,43.17
2018-04-16T22:46:23.094Z,43.03
2018-04-16T22:48:49.156Z,43.12
2018-04-16T22:51:15.137Z,42.99
2018-04-16T22:53:41.137Z,43.01
2018-04-16T22:56:07.152Z,43.02
2018-04-16T22:58:33.129Z,43.04
2018-04-16T23:00:59.108Z,43.05
2018-04-16T23:03:25.123Z,43.03
2018-04-16T23:05:51.096Z,43.10
2018-04-16T23:08:17.083Z,43.05
2018-04-16T23:10:43.066Z,43.01
2018-04-16T23:13:09.048Z,43.00
2018-04-16T23:15:35.036Z,43.11
2018-04-16T23:18:01.018Z,43.00
2018-04-16T23:20:27.010Z,42.98
2018-04-16T23:22:52.992Z,42.86
2018-04-16T23:25:19.009Z,42.76
2018-04-16T23:27:44.960Z,42.75
2018-04-16T23:30:10.957Z,42.82
2018-04-16T23:32:36.989Z,42.85
2018-04-16T23:35:02.937Z,42.79
2018-04-16T23:37:28.939Z,42.72
2018-04-16T23:39:54.933Z,42.67
2018-04-16T23:42:20.923Z,42.69
2018-04-16T23:44:46.871Z,42.62
2018-04-16T23:47:12.866Z,42.66
2018-04-16T23:49:38.852Z,42.52
2018-04-16T23:52:04.836Z,42.61
2018-04-16T23:54:30.874Z,42.62
2018-04-16T23:56:56.888Z,42.64
2018-04-16T23:59:22.837Z,42.60
